Denton, Georgia
Current Conditions -  °F | °C
As of 6:15 PM on Thursday 27 Nov 2014 (Local Time) from KAZE Reporting Station
Clear Clear  
Wind Chill: 50°   Ceiling: Unl
Heat Index: 50°   Visibility: 10mi
Dew Point: 32°   Wind: 3mph
Humidity: 51%   Direction: 320°NW
Pressure: 30.28"   Gusts: NA
Location:  31.72°N, 82.69°W
Report Text: KAZE 272315Z AUTO 32003KT 10SM CLR 10/00 A3028 RMK AO2 T00980001
Loading
Personal Weather Stations






























Interactive Weather Map New forecast layout! Learn more

10-Day Weather Forecast

Advertisements
Track Severe Weather on mobile